createdAt,value
2019-02-25T00:01:14.963Z,5.90
2019-02-25T00:03:45.324Z,5.27
2019-02-25T00:06:15.874Z,5.17
2019-02-25T00:08:46.808Z,5.80
2019-02-25T00:11:17.095Z,6.67
2019-02-25T00:13:47.278Z,6.30
2019-02-25T00:16:28.490Z,6.60
2019-02-25T00:18:58.687Z,6.50
2019-02-25T00:21:45.019Z,6.10
2019-02-25T00:24:15.210Z,6.10
2019-02-25T00:34:22.299Z,5.13
2019-02-25T00:36:52.471Z,5.10
2019-02-25T00:39:22.660Z,5.47
2019-02-25T00:41:52.899Z,4.80
2019-02-25T00:44:23.094Z,5.00
2019-02-25T00:47:03.357Z,5.20
2019-02-25T00:49:34.531Z,5.23
2019-02-25T00:52:04.780Z,5.63
2019-02-25T00:54:34.961Z,4.93
2019-02-25T00:57:06.175Z,5.50
2019-02-25T00:59:45.166Z,5.53
2019-02-25T01:02:15.354Z,6.13
2019-02-25T01:04:53.041Z,6.27
2019-02-25T01:07:32.107Z,6.30
2019-02-25T01:10:02.299Z,6.03
2019-02-25T01:12:33.553Z,6.50
2019-02-25T01:15:04.400Z,6.73
2019-02-25T01:17:34.645Z,6.80
2019-02-25T01:20:07.776Z,6.43
2019-02-25T01:22:44.161Z,7.30
2019-02-25T01:25:30.749Z,7.00
2019-02-25T01:28:13.802Z,6.63
2019-02-25T01:30:44.007Z,7.27
2019-02-25T01:33:14.183Z,7.77
2019-02-25T01:35:44.386Z,6.97
2019-02-25T01:38:15.717Z,7.77
2019-02-25T01:40:46.035Z,7.37
2019-02-25T01:43:16.224Z,7.63
2019-02-25T01:45:46.421Z,8.57
2019-02-25T01:48:16.610Z,8.23
2019-02-25T01:50:46.818Z,8.33
2019-02-25T01:53:17.012Z,8.03
2019-02-25T01:55:49.154Z,7.70
2019-02-25T01:58:19.343Z,7.20
2019-02-25T02:00:49.530Z,6.83
2019-02-25T02:03:23.878Z,7.00
2019-02-25T02:06:07.979Z,7.07
2019-02-25T02:08:51.528Z,6.70
2019-02-25T02:11:21.713Z,6.80
2019-02-25T02:13:51.932Z,6.87
2019-02-25T02:16:22.096Z,7.37
2019-02-25T02:18:59.356Z,7.20
2019-02-25T02:21:29.533Z,7.07
2019-02-25T02:23:59.717Z,7.00
2019-02-25T02:26:29.900Z,6.97
2019-02-25T02:29:02.087Z,7.50
2019-02-25T02:31:32.278Z,7.63
2019-02-25T02:34:02.458Z,6.67
2019-02-25T02:36:32.648Z,7.20
2019-02-25T02:39:03.110Z,6.40
2019-02-25T02:41:40.865Z,6.40
2019-02-25T02:44:11.059Z,6.70
2019-02-25T02:47:19.180Z,7.07
2019-02-25T02:49:49.367Z,7.13
2019-02-25T02:52:22.598Z,6.53
2019-02-25T02:54:52.810Z,6.67
2019-02-25T02:57:22.992Z,6.80
2019-02-25T02:59:53.190Z,6.57
2019-02-25T03:02:29.921Z,6.57
2019-02-25T03:05:00.285Z,7.30
2019-02-25T03:07:30.444Z,6.67
2019-02-25T03:10:00.632Z,8.70
2019-02-25T03:12:30.830Z,7.07
2019-02-25T03:15:01.037Z,7.50
2019-02-25T03:17:31.284Z,6.43
2019-02-25T03:20:02.630Z,7.77
2019-02-25T03:22:32.876Z,7.07
2019-02-25T03:25:19.456Z,6.93
2019-02-25T03:27:49.616Z,6.83
2019-02-25T03:30:21.723Z,7.67
2019-02-25T03:32:51.924Z,7.90
2019-02-25T03:35:22.131Z,7.23
2019-02-25T03:37:52.321Z,7.60
2019-02-25T03:40:23.565Z,7.50
2019-02-25T03:42:53.770Z,7.77
2019-02-25T03:45:23.959Z,7.47
2019-02-25T03:47:59.601Z,7.93
2019-02-25T03:50:36.838Z,7.63
2019-02-25T03:53:08.575Z,7.60
2019-02-25T03:55:38.836Z,8.17
2019-02-25T03:58:28.192Z,7.83
2019-02-25T04:00:58.378Z,7.23
2019-02-25T04:03:28.564Z,7.60
2019-02-25T04:06:05.969Z,7.33
2019-02-25T04:08:36.152Z,7.30
2019-02-25T04:11:06.348Z,8.63
2019-02-25T04:13:39.206Z,7.77
2019-02-25T04:16:09.459Z,7.13
2019-02-25T04:18:39.657Z,7.50
2019-02-25T04:21:09.847Z,6.90
2019-02-25T04:23:49.007Z,7.70
2019-02-25T04:26:19.202Z,6.87
2019-02-25T04:28:49.392Z,6.67
2019-02-25T04:31:38.050Z,6.63
2019-02-25T04:34:14.695Z,6.47
2019-02-25T04:36:44.870Z,6.97
2019-02-25T04:39:25.557Z,6.97
2019-02-25T04:41:55.725Z,7.47
2019-02-25T04:44:29.738Z,6.53
2019-02-25T04:46:59.936Z,6.90
2019-02-25T04:49:30.122Z,6.17
2019-02-25T04:52:01.228Z,5.73
2019-02-25T04:54:31.421Z,6.07
2019-02-25T04:57:01.628Z,6.07
2019-02-25T04:59:31.822Z,6.23
2019-02-25T05:02:02.395Z,6.53
2019-02-25T05:04:32.667Z,6.17
2019-02-25T05:07:02.880Z,5.67
2019-02-25T05:09:33.059Z,5.43
2019-02-25T05:12:03.247Z,5.70
2019-02-25T05:14:40.026Z,6.27
2019-02-25T05:17:45.416Z,6.07
2019-02-25T05:20:15.600Z,6.97
2019-02-25T05:22:45.804Z,5.40
2019-02-25T05:25:19.214Z,6.93
2019-02-25T05:27:49.391Z,6.13
2019-02-25T05:30:31.949Z,5.90
2019-02-25T05:33:02.151Z,6.40
2019-02-25T05:36:06.830Z,6.20
2019-02-25T05:38:37.033Z,7.17
2019-02-25T05:41:12.299Z,6.50
2019-02-25T05:43:42.505Z,6.40
2019-02-25T05:46:12.710Z,6.57
2019-02-25T05:48:56.200Z,6.37
2019-02-25T05:51:26.392Z,6.10
2019-02-25T05:53:56.582Z,5.73
2019-02-25T05:56:26.784Z,6.60
2019-02-25T05:59:04.196Z,6.10
2019-02-25T06:01:36.298Z,5.30
2019-02-25T06:04:06.483Z,5.97
2019-02-25T06:06:44.521Z,6.00
2019-02-25T06:09:14.726Z,5.67
2019-02-25T06:11:57.356Z,6.33
2019-02-25T06:14:33.020Z,6.40
2019-02-25T06:17:03.197Z,6.83
2019-02-25T06:19:33.404Z,6.90
2019-02-25T06:22:03.593Z,5.90
2019-02-25T06:24:33.788Z,5.63
2019-02-25T06:27:06.661Z,5.73
2019-02-25T06:29:36.854Z,5.50
2019-02-25T06:32:17.853Z,5.60
2019-02-25T06:34:48.072Z,5.60
2019-02-25T06:37:18.253Z,6.43
2019-02-25T06:39:54.326Z,7.30
2019-02-25T06:42:39.662Z,6.23
2019-02-25T06:45:15.692Z,5.90
2019-02-25T06:47:45.887Z,5.67
2019-02-25T06:50:16.159Z,5.47
2019-02-25T06:53:02.642Z,7.03
2019-02-25T06:55:38.339Z,6.37
2019-02-25T06:58:50.968Z,6.27
2019-02-25T07:01:22.091Z,5.93
2019-02-25T07:04:05.027Z,5.73
2019-02-25T07:06:36.832Z,6.03
2019-02-25T07:09:11.155Z,6.63
2019-02-25T07:11:42.998Z,6.37
2019-02-25T07:14:26.052Z,6.07
2019-02-25T07:17:02.146Z,5.47
2019-02-25T07:19:46.943Z,5.77
2019-02-25T07:22:18.790Z,6.17
2019-02-25T07:24:56.310Z,6.50
2019-02-25T07:27:43.215Z,6.53
2019-02-25T07:30:15.049Z,5.67
2019-02-25T07:32:49.738Z,5.67
2019-02-25T07:35:21.552Z,6.40
2019-02-25T07:38:03.519Z,5.47
2019-02-25T07:41:15.438Z,5.67
2019-02-25T07:44:06.023Z,5.77
2019-02-25T07:46:43.373Z,6.13
2019-02-25T07:49:27.366Z,6.07
2019-02-25T07:52:10.541Z,6.23
2019-02-25T07:54:58.871Z,6.03
2019-02-25T07:57:46.657Z,6.13
2019-02-25T08:00:40.953Z,6.00
2019-02-25T08:03:18.782Z,5.53
2019-02-25T08:05:50.602Z,5.93
2019-02-25T08:08:27.999Z,6.27
2019-02-25T08:11:02.755Z,7.13
2019-02-25T08:13:47.534Z,7.00
2019-02-25T08:16:25.393Z,7.37
2019-02-25T08:19:05.992Z,7.43
2019-02-25T08:21:41.922Z,7.90
2019-02-25T08:24:13.768Z,8.33
2019-02-25T08:27:09.637Z,9.10
2019-02-25T08:29:47.456Z,7.80
2019-02-25T08:32:19.349Z,8.20
2019-02-25T08:35:08.212Z,8.63
2019-02-25T08:37:59.129Z,8.23
2019-02-25T08:40:44.743Z,8.97
2019-02-25T08:43:18.089Z,9.20
2019-02-25T08:45:55.721Z,8.97
2019-02-25T08:48:29.990Z,9.27
2019-02-25T08:51:00.176Z,8.60
2019-02-25T08:53:30.373Z,8.63
2019-02-25T08:56:00.575Z,8.17
2019-02-25T08:58:30.749Z,8.17
2019-02-25T09:01:00.946Z,8.07
2019-02-25T09:03:31.139Z,8.53
2019-02-25T09:06:01.332Z,8.43
2019-02-25T09:08:31.517Z,8.37
2019-02-25T09:11:01.731Z,8.63
2019-02-25T09:13:32.973Z,8.57
2019-02-25T09:16:04.234Z,9.57
2019-02-25T09:18:34.427Z,8.37
2019-02-25T09:21:04.713Z,7.73
2019-02-25T09:23:35.866Z,8.20
2019-02-25T09:26:06.093Z,8.00
2019-02-25T09:28:36.277Z,7.63
2019-02-25T09:31:06.502Z,7.77
2019-02-25T09:33:36.783Z,7.77
2019-02-25T09:36:07.027Z,7.90
2019-02-25T09:38:37.247Z,7.37
2019-02-25T09:41:19.605Z,7.30
2019-02-25T09:43:49.798Z,7.70
2019-02-25T09:46:19.988Z,7.40
2019-02-25T09:48:50.172Z,6.83
2019-02-25T09:51:20.380Z,7.20
2019-02-25T09:53:50.550Z,7.03
2019-02-25T09:56:20.757Z,7.00
2019-02-25T09:58:52.003Z,7.73
2019-02-25T10:02:00.170Z,7.27
2019-02-25T10:04:30.367Z,7.43
2019-02-25T10:07:02.446Z,7.07
2019-02-25T10:09:38.122Z,6.77
2019-02-25T10:12:08.308Z,6.60
2019-02-25T10:14:38.509Z,5.97
2019-02-25T10:17:08.734Z,6.33
2019-02-25T10:19:39.114Z,5.50
2019-02-25T10:22:10.344Z,6.20
2019-02-25T10:24:40.515Z,6.90
2019-02-25T10:27:10.719Z,6.00
2019-02-25T10:29:40.914Z,6.13
2019-02-25T10:32:12.079Z,5.50
2019-02-25T10:34:42.323Z,6.00
2019-02-25T10:37:49.677Z,5.40
2019-02-25T10:40:24.039Z,4.33
2019-02-25T10:42:51.737Z,5.07
2019-02-25T10:45:25.993Z,5.20
2019-02-25T10:47:58.659Z,4.70
2019-02-25T10:50:28.840Z,4.83
2019-02-25T10:53:03.729Z,4.70
2019-02-25T10:55:41.387Z,4.90
2019-02-25T10:58:12.016Z,4.63
2019-02-25T11:00:43.825Z,4.20
2019-02-25T11:03:24.055Z,4.63
2019-02-25T11:06:00.808Z,4.30
2019-02-25T11:08:32.566Z,4.43
2019-02-25T11:11:05.541Z,5.40
2019-02-25T11:13:36.733Z,4.23
2019-02-25T11:16:16.452Z,4.60
2019-02-25T11:18:47.210Z,3.63
2019-02-25T11:21:17.393Z,3.53
2019-02-25T11:23:49.229Z,3.80
2019-02-25T11:26:20.472Z,3.57
2019-02-25T11:28:50.683Z,3.60
2019-02-25T11:31:24.097Z,4.00
2019-02-25T11:33:52.757Z,3.87
2019-02-25T11:36:24.019Z,3.90
2019-02-25T11:38:54.207Z,4.37
2019-02-25T11:41:24.646Z,3.57
2019-02-25T11:43:55.328Z,3.10
2019-02-25T11:46:31.103Z,3.03
2019-02-25T11:49:01.285Z,3.17
2019-02-25T11:51:37.358Z,3.00
2019-02-25T11:54:07.567Z,3.00
2019-02-25T11:56:46.123Z,4.07
2019-02-25T11:59:16.330Z,4.23
2019-02-25T12:01:46.506Z,4.60
2019-02-25T12:04:53.743Z,4.37
2019-02-25T12:07:23.922Z,3.97
2019-02-25T12:10:00.345Z,3.60
2019-02-25T12:12:30.593Z,4.20
2019-02-25T12:15:00.796Z,3.03
2019-02-25T12:17:30.970Z,3.70
2019-02-25T12:20:01.180Z,4.70
2019-02-25T12:22:33.303Z,4.40
2019-02-25T12:25:04.546Z,4.87
2019-02-25T12:27:34.728Z,3.97
2019-02-25T12:30:11.861Z,3.97
2019-02-25T12:32:42.054Z,2.90
2019-02-25T12:35:12.507Z,3.33
2019-02-25T12:37:42.712Z,2.90
2019-02-25T12:40:30.979Z,3.13
2019-02-25T12:43:01.148Z,3.03
2019-02-25T12:45:31.374Z,3.57
2019-02-25T12:48:01.557Z,2.97
2019-02-25T12:50:38.521Z,3.40
2019-02-25T12:53:20.731Z,3.03
2019-02-25T12:55:50.935Z,3.23
2019-02-25T12:58:21.208Z,3.93
2019-02-25T13:00:52.301Z,3.63
2019-02-25T13:03:22.503Z,3.53
2019-02-25T13:06:01.454Z,4.60
2019-02-25T13:08:50.688Z,3.87
2019-02-25T13:11:26.647Z,3.97
2019-02-25T13:14:16.829Z,3.53
2019-02-25T13:16:50.158Z,3.93
2019-02-25T13:19:20.342Z,3.80
2019-02-25T13:21:54.363Z,4.47
2019-02-25T13:24:24.542Z,4.23
2019-02-25T13:26:54.731Z,4.10
2019-02-25T13:29:24.916Z,3.70
2019-02-25T13:31:59.027Z,4.00
2019-02-25T13:34:29.215Z,3.60
2019-02-25T13:36:59.407Z,3.90
2019-02-25T13:39:29.613Z,3.90
2019-02-25T13:41:59.781Z,3.70
2019-02-25T13:44:29.987Z,3.83
2019-02-25T13:47:00.166Z,12.13
2019-02-25T13:49:46.246Z,4.03
2019-02-25T13:52:16.430Z,3.67
2019-02-25T13:54:46.662Z,4.00
2019-02-25T13:57:16.834Z,3.67
2019-02-25T13:59:47.038Z,3.87
2019-02-25T14:02:21.611Z,3.50
2019-02-25T14:04:51.815Z,3.47
2019-02-25T14:07:27.930Z,3.50
2019-02-25T14:10:00.092Z,3.53
2019-02-25T14:12:30.483Z,3.67
2019-02-25T14:15:00.684Z,3.50
2019-02-25T14:17:41.978Z,3.70
2019-02-25T14:20:18.000Z,3.80
2019-02-25T14:22:48.286Z,4.27
2019-02-25T14:25:26.954Z,4.20
2019-02-25T14:28:08.280Z,4.03
2019-02-25T14:30:39.782Z,4.00
2019-02-25T14:33:23.593Z,3.80
2019-02-25T14:36:10.990Z,3.60
2019-02-25T14:38:41.244Z,3.73
2019-02-25T14:41:13.376Z,3.67
2019-02-25T14:43:47.029Z,3.50
2019-02-25T14:46:17.306Z,3.73
2019-02-25T14:48:47.306Z,3.57
2019-02-25T14:51:18.474Z,4.57
2019-02-25T14:53:49.501Z,4.17
2019-02-25T14:56:49.605Z,3.73
2019-02-25T14:59:20.385Z,3.87
2019-02-25T15:01:51.165Z,4.50
2019-02-25T15:04:35.850Z,4.23
2019-02-25T15:07:08.647Z,4.27
2019-02-25T15:09:39.720Z,4.30
2019-02-25T15:12:16.086Z,4.07
2019-02-25T15:15:00.200Z,4.07
2019-02-25T15:17:30.575Z,4.43
2019-02-25T15:20:00.777Z,4.37
2019-02-25T15:22:40.774Z,4.20
2019-02-25T15:25:23.529Z,4.10
2019-02-25T15:27:53.712Z,4.43
2019-02-25T15:30:30.883Z,3.90
2019-02-25T15:33:01.186Z,4.07
2019-02-25T15:35:39.238Z,3.37
2019-02-25T15:38:21.545Z,3.90
2019-02-25T15:40:51.806Z,3.57
2019-02-25T15:43:23.302Z,3.23
2019-02-25T15:45:54.154Z,3.33
2019-02-25T15:48:24.345Z,3.63
2019-02-25T15:51:00.710Z,3.60
2019-02-25T15:53:31.117Z,2.93
2019-02-25T15:56:14.585Z,3.10
2019-02-25T15:58:50.781Z,3.07
2019-02-25T16:01:20.981Z,2.80
2019-02-25T16:03:51.309Z,2.50
2019-02-25T16:06:28.824Z,3.07
2019-02-25T16:08:59.274Z,3.30
2019-02-25T16:11:32.035Z,3.27
2019-02-25T16:14:07.172Z,4.03
2019-02-25T16:16:37.620Z,4.67
2019-02-25T16:19:07.879Z,4.83
2019-02-25T16:21:58.510Z,4.63
2019-02-25T16:24:34.191Z,5.13
2019-02-25T16:27:19.403Z,4.60
2019-02-25T16:29:49.753Z,5.83
2019-02-25T16:32:20.009Z,5.03
2019-02-25T16:34:51.937Z,5.60
2019-02-25T16:37:24.947Z,5.07
2019-02-25T16:40:12.404Z,6.07
2019-02-25T16:45:59.491Z,5.33
2019-02-25T16:48:32.650Z,5.47
2019-02-25T16:51:10.780Z,5.93
2019-02-25T16:53:43.365Z,6.50
2019-02-25T16:56:16.061Z,5.90
2019-02-25T16:58:47.704Z,7.80
2019-02-25T17:01:19.671Z,5.77
2019-02-25T17:03:49.823Z,4.93
2019-02-25T17:06:20.019Z,6.70
2019-02-25T17:08:51.042Z,5.80
2019-02-25T17:11:22.007Z,5.63
2019-02-25T17:13:54.741Z,5.53
2019-02-25T17:16:25.254Z,5.57
2019-02-25T17:19:06.452Z,5.60
2019-02-25T17:21:36.940Z,5.43
2019-02-25T17:24:16.136Z,6.10
2019-02-25T17:27:01.935Z,6.93
2019-02-25T17:29:34.165Z,6.70
2019-02-25T17:32:25.368Z,7.00
2019-02-25T17:35:09.456Z,6.70
2019-02-25T17:37:56.258Z,7.00
2019-02-25T17:40:48.705Z,6.60
2019-02-25T17:43:20.220Z,6.87
2019-02-25T17:45:50.731Z,6.50
2019-02-25T17:48:21.268Z,5.77
2019-02-25T17:50:53.437Z,6.37
2019-02-25T17:53:24.175Z,6.67
2019-02-25T17:55:59.413Z,6.87
2019-02-25T17:58:29.283Z,5.83
2019-02-25T18:01:01.065Z,6.20
2019-02-25T18:03:32.477Z,5.63
2019-02-25T18:06:03.486Z,6.00
2019-02-25T18:08:35.322Z,6.07
2019-02-25T18:11:09.698Z,8.03
2019-02-25T18:13:46.769Z,8.03
2019-02-25T18:16:18.976Z,7.30
2019-02-25T18:18:50.765Z,6.13
2019-02-25T18:21:21.260Z,7.10
2019-02-25T18:24:01.393Z,7.40
2019-02-25T18:26:32.209Z,10.20
2019-02-25T18:32:13.314Z,7.70
2019-02-25T18:34:44.558Z,8.27
2019-02-25T18:37:15.617Z,8.53
2019-02-25T18:39:54.289Z,8.20
2019-02-25T18:42:24.329Z,7.90
2019-02-25T18:44:57.673Z,9.30
2019-02-25T18:47:27.940Z,8.30
2019-02-25T18:50:07.411Z,7.63
2019-02-25T18:52:38.502Z,8.03
2019-02-25T18:55:12.023Z,8.17
2019-02-25T18:57:51.932Z,8.10
2019-02-25T19:00:45.314Z,8.07
2019-02-25T19:03:17.790Z,9.00
2019-02-25T19:06:06.891Z,8.83
2019-02-25T19:08:37.110Z,8.60
2019-02-25T19:11:07.328Z,9.77
2019-02-25T19:13:37.693Z,9.43
2019-02-25T19:16:09.009Z,9.07
2019-02-25T19:18:41.340Z,8.83
2019-02-25T19:21:11.085Z,8.20
2019-02-25T19:23:44.109Z,9.47
2019-02-25T19:26:21.897Z,9.77
2019-02-25T19:29:08.185Z,9.47
2019-02-25T19:31:39.905Z,9.70
2019-02-25T19:34:15.497Z,8.70
2019-02-25T19:36:44.253Z,9.63
2019-02-25T19:39:23.224Z,9.93
2019-02-25T19:42:05.418Z,9.43
2019-02-25T19:44:44.592Z,9.10
2019-02-25T19:47:20.479Z,8.97
2019-02-25T19:50:16.830Z,9.30
2019-02-25T19:52:47.142Z,9.03
2019-02-25T19:55:23.249Z,9.90
2019-02-25T19:58:02.942Z,9.57
2019-02-25T20:01:00.866Z,9.63
2019-02-25T20:03:28.978Z,9.80
2019-02-25T20:06:00.138Z,9.33
2019-02-25T20:08:56.403Z,10.30
2019-02-25T20:11:28.604Z,9.67
2019-02-25T20:14:01.521Z,10.20
2019-02-25T20:16:33.137Z,10.90
2019-02-25T20:19:09.234Z,10.47
2019-02-25T20:21:40.741Z,10.50
2019-02-25T20:24:14.384Z,10.23
2019-02-25T20:26:44.085Z,10.40
2019-02-25T20:29:15.220Z,9.90
2019-02-25T20:31:47.415Z,9.73
2019-02-25T20:34:25.901Z,10.30
2019-02-25T20:36:59.920Z,9.00
2019-02-25T20:39:31.783Z,9.60
2019-02-25T20:42:01.983Z,10.10
2019-02-25T20:44:37.769Z,9.83
2019-02-25T20:47:15.006Z,9.47
2019-02-25T20:49:47.393Z,10.17
2019-02-25T20:52:18.132Z,10.17
2019-02-25T20:54:52.162Z,9.10
2019-02-25T20:57:29.615Z,9.43
2019-02-25T21:00:08.991Z,9.83
2019-02-25T21:02:40.612Z,9.73
2019-02-25T21:05:13.922Z,10.07
2019-02-25T21:07:43.191Z,10.77
2019-02-25T21:10:18.950Z,10.73
2019-02-25T21:12:50.346Z,10.63
2019-02-25T21:15:35.441Z,9.97
2019-02-25T21:18:07.688Z,10.07
2019-02-25T21:20:40.059Z,10.00
2019-02-25T21:23:12.466Z,10.17
2019-02-25T21:25:44.183Z,10.67
2019-02-25T21:28:17.133Z,10.30
2019-02-25T21:30:54.295Z,10.73
2019-02-25T21:33:34.548Z,10.83
2019-02-25T21:36:04.745Z,10.73
2019-02-25T21:38:36.870Z,10.83
2019-02-25T21:41:08.973Z,11.53
2019-02-25T21:43:38.960Z,10.77
2019-02-25T21:46:09.143Z,9.83
2019-02-25T21:48:50.966Z,11.03
2019-02-25T21:51:20.221Z,11.13
2019-02-25T21:54:08.938Z,11.23
2019-02-25T21:56:39.444Z,11.17
2019-02-25T21:59:17.464Z,10.63
2019-02-25T22:02:07.454Z,10.57
2019-02-25T22:04:40.433Z,10.87
2019-02-25T22:07:19.838Z,10.63
2019-02-25T22:09:53.092Z,10.43
2019-02-25T22:12:33.030Z,9.93
2019-02-25T22:15:42.885Z,11.33
2019-02-25T22:18:14.109Z,9.70
2019-02-25T22:20:47.077Z,10.33
2019-02-25T22:23:16.773Z,9.90
2019-02-25T22:26:05.190Z,10.00
2019-02-25T22:28:55.275Z,9.33
2019-02-25T22:32:01.837Z,9.83
2019-02-25T22:34:33.841Z,10.37
2019-02-25T22:37:04.288Z,10.03
2019-02-25T22:39:43.816Z,9.27
2019-02-25T22:42:15.020Z,9.27
2019-02-25T22:44:47.477Z,8.47
2019-02-25T22:47:18.462Z,9.20
2019-02-25T22:49:49.278Z,8.87
2019-02-25T22:53:01.622Z,9.07
2019-02-25T22:55:39.241Z,9.20
2019-02-25T22:58:08.826Z,8.73
2019-02-25T23:00:58.226Z,8.87
2019-02-25T23:03:28.337Z,8.83
2019-02-25T23:06:15.631Z,9.40
2019-02-25T23:08:46.980Z,9.60
2019-02-25T23:11:30.290Z,8.87
2019-02-25T23:14:00.554Z,9.33
2019-02-25T23:16:52.360Z,8.97
2019-02-25T23:19:22.636Z,9.60
2019-02-25T23:21:52.919Z,11.07
2019-02-25T23:24:37.438Z,11.73
2019-02-25T23:27:08.217Z,11.10
2019-02-25T23:29:38.809Z,10.90
2019-02-25T23:32:09.986Z,11.00
2019-02-25T23:34:55.594Z,11.77
2019-02-25T23:37:25.843Z,10.17
2019-02-25T23:39:55.986Z,11.10
2019-02-25T23:42:26.195Z,10.37
2019-02-25T23:45:46.295Z,10.70
2019-02-25T23:48:16.626Z,10.67
2019-02-25T23:50:48.089Z,10.37
2019-02-25T23:53:18.803Z,10.80
2019-02-25T23:55:50.075Z,10.13
2019-02-25T23:58:22.290Z,9.20
